ΕΜΥ, Εθνική Μετεωρολογική Υπηρεσία - Δελτία Καιρού, Προγνώσεις

ΑΕΡΟΝΑΥΤΙΛΙΑ

GREEK AIRPORTS CODES

TAF LGIO 261100Z 2612/2621 VRB03KT 9999 FEW025 BKN080=

EUROPEAN AIRPORTS CODES

LFPO 261230Z 19006KT 4000 BR SCT002 OVC003 07/07 Q1030 BECMG6000 BKN006=